sensor_id;sensor_type;location;lat;lon;timestamp;P1;durP1;ratioP1;P2;durP2;ratioP2
28270;SDS011;15527;0.000;0.000;2022-11-20T00:00:23;5.40;;;4.43;;
28270;SDS011;15527;0.000;0.000;2022-11-20T00:01:23;4.63;;;4.13;;
28270;SDS011;15527;0.000;0.000;2022-11-20T00:02:26;7.53;;;4.65;;
28270;SDS011;15527;0.000;0.000;2022-11-20T00:03:24;5.55;;;4.10;;
28270;SDS011;15527;0.000;0.000;2022-11-20T00:04:23;5.22;;;4.35;;
28270;SDS011;15527;0.000;0.000;2022-11-20T00:05:21;5.82;;;4.50;;
28270;SDS011;15527;0.000;0.000;2022-11-20T00:06:20;4.65;;;4.25;;
28270;SDS011;15527;0.000;0.000;2022-11-20T00:07:20;5.10;;;4.50;;
28270;SDS011;15527;0.000;0.000;2022-11-20T00:08:18;4.97;;;4.03;;
28270;SDS011;15527;0.000;0.000;2022-11-20T00:09:19;6.20;;;4.78;;
28270;SDS011;15527;0.000;0.000;2022-11-20T00:10:18;5.05;;;4.45;;
28270;SDS011;15527;0.000;0.000;2022-11-20T00:11:18;6.30;;;4.85;;
28270;SDS011;15527;0.000;0.000;2022-11-20T00:12:18;6.03;;;4.78;;
28270;SDS011;15527;0.000;0.000;2022-11-20T00:13:19;5.75;;;5.05;;
28270;SDS011;15527;0.000;0.000;2022-11-20T00:14:18;5.32;;;4.45;;
28270;SDS011;15527;0.000;0.000;2022-11-20T00:15:16;6.53;;;5.03;;
28270;SDS011;15527;0.000;0.000;2022-11-20T00:16:16;4.35;;;3.92;;
28270;SDS011;15527;0.000;0.000;2022-11-20T00:17:20;5.43;;;4.50;;
28270;SDS011;15527;0.000;0.000;2022-11-20T00:18:18;4.75;;;4.10;;
28270;SDS011;15527;0.000;0.000;2022-11-20T00:19:17;5.00;;;4.40;;
28270;SDS011;15527;0.000;0.000;2022-11-20T00:20:18;4.50;;;4.10;;
28270;SDS011;15527;0.000;0.000;2022-11-20T00:21:20;4.93;;;4.25;;
28270;SDS011;15527;0.000;0.000;2022-11-20T00:22:20;4.60;;;4.05;;
28270;SDS011;15527;0.000;0.000;2022-11-20T00:23:19;6.43;;;4.00;;
28270;SDS011;15527;0.000;0.000;2022-11-20T00:24:18;4.43;;;4.03;;
28270;SDS011;15527;0.000;0.000;2022-11-20T00:25:16;5.68;;;4.30;;
28270;SDS011;15527;0.000;0.000;2022-11-20T00:26:18;4.30;;;3.90;;
28270;SDS011;15527;0.000;0.000;2022-11-20T00:27:17;5.72;;;4.65;;
28270;SDS011;15527;0.000;0.000;2022-11-20T00:28:16;4.78;;;4.20;;
28270;SDS011;15527;0.000;0.000;2022-11-20T00:29:14;4.97;;;4.43;;
28270;SDS011;15527;0.000;0.000;2022-11-20T00:30:13;5.00;;;4.43;;
28270;SDS011;15527;0.000;0.000;2022-11-20T00:31:15;4.60;;;4.20;;
28270;SDS011;15527;0.000;0.000;2022-11-20T00:32:18;4.35;;;3.88;;
28270;SDS011;15527;0.000;0.000;2022-11-20T00:33:17;5.05;;;4.22;;
28270;SDS011;15527;0.000;0.000;2022-11-20T00:34:18;4.47;;;4.07;;
28270;SDS011;15527;0.000;0.000;2022-11-20T00:35:16;4.88;;;4.05;;
28270;SDS011;15527;0.000;0.000;2022-11-20T00:36:16;4.53;;;4.07;;
28270;SDS011;15527;0.000;0.000;2022-11-20T00:37:19;6.03;;;4.70;;
28270;SDS011;15527;0.000;0.000;2022-11-20T00:38:18;6.00;;;4.55;;
28270;SDS011;15527;0.000;0.000;2022-11-20T00:39:16;4.80;;;4.00;;
28270;SDS011;15527;0.000;0.000;2022-11-20T00:40:15;5.47;;;4.40;;
28270;SDS011;15527;0.000;0.000;2022-11-20T00:41:15;4.70;;;4.15;;
28270;SDS011;15527;0.000;0.000;2022-11-20T00:42:16;4.70;;;4.30;;
28270;SDS011;15527;0.000;0.000;2022-11-20T00:43:14;4.43;;;3.90;;
28270;SDS011;15527;0.000;0.000;2022-11-20T00:44:15;4.85;;;4.35;;
28270;SDS011;15527;0.000;0.000;2022-11-20T00:45:14;4.72;;;4.22;;
28270;SDS011;15527;0.000;0.000;2022-11-20T00:46:16;5.38;;;4.60;;
28270;SDS011;15527;0.000;0.000;2022-11-20T00:47:16;4.53;;;4.13;;
28270;SDS011;15527;0.000;0.000;2022-11-20T00:48:17;4.38;;;3.97;;
28270;SDS011;15527;0.000;0.000;2022-11-20T00:49:16;5.00;;;4.47;;
28270;SDS011;15527;0.000;0.000;2022-11-20T00:50:17;5.38;;;4.38;;
28270;SDS011;15527;0.000;0.000;2022-11-20T00:51:17;5.10;;;4.32;;
28270;SDS011;15527;0.000;0.000;2022-11-20T00:52:17;5.68;;;4.80;;
28270;SDS011;15527;0.000;0.000;2022-11-20T00:53:18;5.75;;;4.57;;
28270;SDS011;15527;0.000;0.000;2022-11-20T00:54:16;4.85;;;4.35;;
28270;SDS011;15527;0.000;0.000;2022-11-20T00:55:15;5.20;;;4.70;;
28270;SDS011;15527;0.000;0.000;2022-11-20T00:56:17;5.07;;;4.35;;
28270;SDS011;15527;0.000;0.000;2022-11-20T00:57:17;5.22;;;4.28;;
28270;SDS011;15527;0.000;0.000;2022-11-20T00:58:18;5.32;;;4.03;;
28270;SDS011;15527;0.000;0.000;2022-11-20T00:59:16;4.72;;;3.90;;
28270;SDS011;15527;0.000;0.000;2022-11-20T01:00:15;5.63;;;4.68;;
28270;SDS011;15527;0.000;0.000;2022-11-20T01:01:15;4.72;;;4.13;;
28270;SDS011;15527;0.000;0.000;2022-11-20T01:02:13;5.25;;;4.43;;
28270;SDS011;15527;0.000;0.000;2022-11-20T01:03:14;5.88;;;4.60;;
28270;SDS011;15527;0.000;0.000;2022-11-20T01:04:13;4.72;;;4.20;;
28270;SDS011;15527;0.000;0.000;2022-11-20T01:05:11;5.35;;;4.60;;
28270;SDS011;15527;0.000;0.000;2022-11-20T01:06:13;4.70;;;4.20;;
28270;SDS011;15527;0.000;0.000;2022-11-20T01:07:14;4.65;;;3.97;;
28270;SDS011;15527;0.000;0.000;2022-11-20T01:08:13;4.63;;;4.18;;
28270;SDS011;15527;0.000;0.000;2022-11-20T01:09:12;5.15;;;4.30;;
28270;SDS011;15527;0.000;0.000;2022-11-20T01:10:11;4.60;;;4.05;;
28270;SDS011;15527;0.000;0.000;2022-11-20T01:11:13;5.00;;;4.45;;
28270;SDS011;15527;0.000;0.000;2022-11-20T01:12:16;4.65;;;4.03;;
28270;SDS011;15527;0.000;0.000;2022-11-20T01:13:16;5.40;;;4.85;;
28270;SDS011;15527;0.000;0.000;2022-11-20T01:14:34;4.30;;;3.90;;
28270;SDS011;15527;0.000;0.000;2022-11-20T01:15:34;4.80;;;4.25;;
28270;SDS011;15527;0.000;0.000;2022-11-20T01:16:39;5.25;;;4.60;;
28270;SDS011;15527;0.000;0.000;2022-11-20T01:17:40;4.88;;;4.38;;
28270;SDS011;15527;0.000;0.000;2022-11-20T01:18:42;4.85;;;4.43;;
28270;SDS011;15527;0.000;0.000;2022-11-20T01:19:44;4.43;;;4.03;;
28270;SDS011;15527;0.000;0.000;2022-11-20T01:20:48;4.75;;;4.18;;
28270;SDS011;15527;0.000;0.000;2022-11-20T01:21:51;4.20;;;3.75;;
28270;SDS011;15527;0.000;0.000;2022-11-20T01:22:54;4.90;;;4.40;;
28270;SDS011;15527;0.000;0.000;2022-11-20T01:23:52;5.10;;;4.50;;
28270;SDS011;15527;0.000;0.000;2022-11-20T01:24:54;4.65;;;4.25;;
28270;SDS011;15527;0.000;0.000;2022-11-20T01:25:53;4.80;;;4.20;;
28270;SDS011;15527;0.000;0.000;2022-11-20T01:26:51;5.10;;;4.60;;
28270;SDS011;15527;0.000;0.000;2022-11-20T01:27:50;4.40;;;4.00;;
28270;SDS011;15527;0.000;0.000;2022-11-20T01:28:49;4.75;;;4.32;;
28270;SDS011;15527;0.000;0.000;2022-11-20T01:29:48;5.70;;;4.47;;
28270;SDS011;15527;0.000;0.000;2022-11-20T01:30:46;5.53;;;4.43;;
28270;SDS011;15527;0.000;0.000;2022-11-20T01:31:50;5.13;;;4.45;;
28270;SDS011;15527;0.000;0.000;2022-11-20T01:32:50;5.25;;;4.30;;
28270;SDS011;15527;0.000;0.000;2022-11-20T01:33:49;4.93;;;4.43;;
28270;SDS011;15527;0.000;0.000;2022-11-20T01:34:52;5.82;;;5.07;;
28270;SDS011;15527;0.000;0.000;2022-11-20T01:35:51;4.65;;;4.25;;
28270;SDS011;15527;0.000;0.000;2022-11-20T01:37:03;4.72;;;4.18;;
28270;SDS011;15527;0.000;0.000;2022-11-20T01:38:02;5.85;;;4.63;;
28270;SDS011;15527;0.000;0.000;2022-11-20T01:39:07;5.32;;;4.82;;
28270;SDS011;15527;0.000;0.000;2022-11-20T01:40:18;5.75;;;4.25;;
28270;SDS011;15527;0.000;0.000;2022-11-20T01:41:17;4.82;;;4.00;;
28270;SDS011;15527;0.000;0.000;2022-11-20T01:42:38;4.80;;;4.40;;
28270;SDS011;15527;0.000;0.000;2022-11-20T01:43:55;5.38;;;4.57;;
28270;SDS011;15527;0.000;0.000;2022-11-20T01:44:57;4.38;;;3.97;;
28270;SDS011;15527;0.000;0.000;2022-11-20T01:46:04;5.22;;;3.97;;
28270;SDS011;15527;0.000;0.000;2022-11-20T01:47:05;4.60;;;3.90;;
28270;SDS011;15527;0.000;0.000;2022-11-20T01:48:07;5.10;;;4.60;;
28270;SDS011;15527;0.000;0.000;2022-11-20T01:49:10;4.65;;;4.07;;
28270;SDS011;15527;0.000;0.000;2022-11-20T01:50:22;4.63;;;4.22;;
28270;SDS011;15527;0.000;0.000;2022-11-20T01:52:36;4.63;;;4.20;;
28270;SDS011;15527;0.000;0.000;2022-11-20T01:53:40;4.90;;;4.40;;
28270;SDS011;15527;0.000;0.000;2022-11-20T01:54:40;4.68;;;4.10;;
28270;SDS011;15527;0.000;0.000;2022-11-20T01:55:56;4.78;;;4.30;;
28270;SDS011;15527;0.000;0.000;2022-11-20T01:56:58;4.72;;;4.25;;
28270;SDS011;15527;0.000;0.000;2022-11-20T01:58:01;4.55;;;4.15;;
28270;SDS011;15527;0.000;0.000;2022-11-20T01:59:01;5.10;;;4.60;;
28270;SDS011;15527;0.000;0.000;2022-11-20T02:00:06;5.05;;;4.53;;
28270;SDS011;15527;0.000;0.000;2022-11-20T02:01:07;4.85;;;4.35;;
28270;SDS011;15527;0.000;0.000;2022-11-20T02:02:06;5.10;;;4.60;;
28270;SDS011;15527;0.000;0.000;2022-11-20T02:03:09;4.90;;;4.40;;
28270;SDS011;15527;0.000;0.000;2022-11-20T02:04:10;5.75;;;4.18;;
28270;SDS011;15527;0.000;0.000;2022-11-20T02:05:14;5.07;;;4.40;;
28270;SDS011;15527;0.000;0.000;2022-11-20T02:06:30;5.18;;;4.20;;
28270;SDS011;15527;0.000;0.000;2022-11-20T02:07:33;4.50;;;4.10;;
28270;SDS011;15527;0.000;0.000;2022-11-20T02:08:32;5.10;;;4.13;;
28270;SDS011;15527;0.000;0.000;2022-11-20T02:09:33;5.90;;;4.60;;
28270;SDS011;15527;0.000;0.000;2022-11-20T02:10:32;4.72;;;4.10;;
28270;SDS011;15527;0.000;0.000;2022-11-20T02:11:31;8.23;;;4.28;;
28270;SDS011;15527;0.000;0.000;2022-11-20T02:12:30;5.55;;;4.82;;
28270;SDS011;15527;0.000;0.000;2022-11-20T02:13:49;6.60;;;4.15;;
28270;SDS011;15527;0.000;0.000;2022-11-20T02:14:48;5.72;;;4.65;;
28270;SDS011;15527;0.000;0.000;2022-11-20T02:15:47;6.07;;;4.22;;
28270;SDS011;15527;0.000;0.000;2022-11-20T02:16:47;5.80;;;4.10;;
28270;SDS011;15527;0.000;0.000;2022-11-20T02:17:46;6.60;;;4.55;;
28270;SDS011;15527;0.000;0.000;2022-11-20T02:18:45;7.00;;;4.20;;
28270;SDS011;15527;0.000;0.000;2022-11-20T02:19:47;5.78;;;4.25;;
28270;SDS011;15527;0.000;0.000;2022-11-20T02:20:48;6.40;;;4.60;;
28270;SDS011;15527;0.000;0.000;2022-11-20T02:23:30;10.82;;;8.68;;
28270;SDS011;15527;0.000;0.000;2022-11-20T02:24:35;10.55;;;8.23;;
28270;SDS011;15527;0.000;0.000;2022-11-20T02:25:34;20.27;;;14.45;;
28270;SDS011;15527;0.000;0.000;2022-11-20T02:26:38;27.02;;;19.90;;
28270;SDS011;15527;0.000;0.000;2022-11-20T02:27:56;30.60;;;21.38;;
28270;SDS011;15527;0.000;0.000;2022-11-20T02:28:55;31.20;;;24.10;;
28270;SDS011;15527;0.000;0.000;2022-11-20T02:29:58;31.73;;;23.27;;
28270;SDS011;15527;0.000;0.000;2022-11-20T02:31:00;34.38;;;24.88;;
28270;SDS011;15527;0.000;0.000;2022-11-20T02:31:59;33.95;;;24.98;;
28270;SDS011;15527;0.000;0.000;2022-11-20T02:33:02;31.77;;;23.83;;
28270;SDS011;15527;0.000;0.000;2022-11-20T02:34:01;35.03;;;25.08;;
28270;SDS011;15527;0.000;0.000;2022-11-20T02:35:09;33.45;;;25.35;;
28270;SDS011;15527;0.000;0.000;2022-11-20T02:36:30;31.65;;;24.33;;
28270;SDS011;15527;0.000;0.000;2022-11-20T02:37:33;33.20;;;24.67;;
28270;SDS011;15527;0.000;0.000;2022-11-20T02:38:37;29.88;;;22.63;;
28270;SDS011;15527;0.000;0.000;2022-11-20T02:39:38;32.20;;;24.00;;
28270;SDS011;15527;0.000;0.000;2022-11-20T02:40:38;31.48;;;23.77;;
28270;SDS011;15527;0.000;0.000;2022-11-20T02:41:39;31.08;;;23.65;;
28270;SDS011;15527;0.000;0.000;2022-11-20T02:42:43;29.38;;;21.83;;
28270;SDS011;15527;0.000;0.000;2022-11-20T02:43:41;32.70;;;22.38;;
28270;SDS011;15527;0.000;0.000;2022-11-20T02:44:40;28.60;;;21.55;;
28270;SDS011;15527;0.000;0.000;2022-11-20T02:45:41;26.75;;;20.65;;
28270;SDS011;15527;0.000;0.000;2022-11-20T02:46:39;25.98;;;20.67;;
28270;SDS011;15527;0.000;0.000;2022-11-20T02:47:38;25.55;;;19.85;;
28270;SDS011;15527;0.000;0.000;2022-11-20T02:48:37;26.27;;;19.02;;
28270;SDS011;15527;0.000;0.000;2022-11-20T02:49:35;26.02;;;19.15;;
28270;SDS011;15527;0.000;0.000;2022-11-20T02:50:36;24.92;;;19.88;;
28270;SDS011;15527;0.000;0.000;2022-11-20T02:51:37;24.23;;;19.48;;
28270;SDS011;15527;0.000;0.000;2022-11-20T02:52:38;23.85;;;19.08;;
28270;SDS011;15527;0.000;0.000;2022-11-20T02:53:37;24.38;;;19.38;;
28270;SDS011;15527;0.000;0.000;2022-11-20T02:54:36;23.77;;;17.90;;
28270;SDS011;15527;0.000;0.000;2022-11-20T02:55:36;23.13;;;17.42;;
28270;SDS011;15527;0.000;0.000;2022-11-20T02:56:37;24.42;;;18.35;;
28270;SDS011;15527;0.000;0.000;2022-11-20T02:57:36;21.10;;;17.15;;
28270;SDS011;15527;0.000;0.000;2022-11-20T02:58:35;20.48;;;17.42;;
28270;SDS011;15527;0.000;0.000;2022-11-20T02:59:34;21.15;;;16.85;;
28270;SDS011;15527;0.000;0.000;2022-11-20T03:00:32;20.13;;;16.23;;
28270;SDS011;15527;0.000;0.000;2022-11-20T03:01:36;19.83;;;15.57;;
28270;SDS011;15527;0.000;0.000;2022-11-20T03:02:34;18.33;;;15.20;;
28270;SDS011;15527;0.000;0.000;2022-11-20T03:03:38;20.08;;;15.45;;
28270;SDS011;15527;0.000;0.000;2022-11-20T03:04:39;18.85;;;15.98;;
28270;SDS011;15527;0.000;0.000;2022-11-20T03:05:37;19.00;;;15.55;;
28270;SDS011;15527;0.000;0.000;2022-11-20T03:06:38;19.13;;;14.98;;
28270;SDS011;15527;0.000;0.000;2022-11-20T03:07:37;16.73;;;14.30;;
28270;SDS011;15527;0.000;0.000;2022-11-20T03:08:35;16.15;;;13.75;;
28270;SDS011;15527;0.000;0.000;2022-11-20T03:09:34;16.80;;;13.88;;
28270;SDS011;15527;0.000;0.000;2022-11-20T03:10:33;18.70;;;14.38;;
28270;SDS011;15527;0.000;0.000;2022-11-20T03:11:31;16.52;;;14.32;;
28270;SDS011;15527;0.000;0.000;2022-11-20T03:12:32;17.88;;;13.15;;
28270;SDS011;15527;0.000;0.000;2022-11-20T03:13:33;17.23;;;13.13;;
28270;SDS011;15527;0.000;0.000;2022-11-20T03:14:32;16.40;;;12.82;;
28270;SDS011;15527;0.000;0.000;2022-11-20T03:15:32;15.73;;;13.30;;
28270;SDS011;15527;0.000;0.000;2022-11-20T03:16:31;14.05;;;12.30;;
28270;SDS011;15527;0.000;0.000;2022-11-20T03:17:30;14.65;;;12.73;;
28270;SDS011;15527;0.000;0.000;2022-11-20T03:18:29;14.48;;;12.40;;
28270;SDS011;15527;0.000;0.000;2022-11-20T03:19:32;13.68;;;12.07;;
28270;SDS011;15527;0.000;0.000;2022-11-20T03:20:31;15.90;;;12.32;;
28270;SDS011;15527;0.000;0.000;2022-11-20T03:21:32;13.60;;;11.45;;
28270;SDS011;15527;0.000;0.000;2022-11-20T03:22:36;15.70;;;12.30;;
28270;SDS011;15527;0.000;0.000;2022-11-20T03:23:35;14.88;;;11.80;;
28270;SDS011;15527;0.000;0.000;2022-11-20T03:24:40;13.43;;;11.32;;
28270;SDS011;15527;0.000;0.000;2022-11-20T03:25:39;13.73;;;11.50;;
28270;SDS011;15527;0.000;0.000;2022-11-20T03:26:38;14.00;;;11.85;;
28270;SDS011;15527;0.000;0.000;2022-11-20T03:27:39;13.70;;;11.43;;
28270;SDS011;15527;0.000;0.000;2022-11-20T03:28:41;14.70;;;11.30;;
28270;SDS011;15527;0.000;0.000;2022-11-20T03:29:44;12.10;;;10.88;;
28270;SDS011;15527;0.000;0.000;2022-11-20T03:30:42;11.45;;;9.95;;
28270;SDS011;15527;0.000;0.000;2022-11-20T03:31:41;12.23;;;10.82;;
28270;SDS011;15527;0.000;0.000;2022-11-20T03:32:42;12.02;;;10.38;;
28270;SDS011;15527;0.000;0.000;2022-11-20T03:33:41;10.80;;;9.68;;
28270;SDS011;15527;0.000;0.000;2022-11-20T03:34:40;13.02;;;11.10;;
28270;SDS011;15527;0.000;0.000;2022-11-20T03:35:38;11.75;;;10.20;;
28270;SDS011;15527;0.000;0.000;2022-11-20T03:36:38;11.48;;;10.27;;
28270;SDS011;15527;0.000;0.000;2022-11-20T03:37:37;12.68;;;10.45;;
28270;SDS011;15527;0.000;0.000;2022-11-20T03:38:38;11.00;;;9.82;;
28270;SDS011;15527;0.000;0.000;2022-11-20T03:39:42;11.00;;;9.73;;
28270;SDS011;15527;0.000;0.000;2022-11-20T03:40:40;11.55;;;10.35;;
28270;SDS011;15527;0.000;0.000;2022-11-20T03:41:40;11.30;;;9.93;;
28270;SDS011;15527;0.000;0.000;2022-11-20T03:42:42;10.48;;;9.30;;
28270;SDS011;15527;0.000;0.000;2022-11-20T03:43:48;11.02;;;9.93;;
28270;SDS011;15527;0.000;0.000;2022-11-20T03:44:51;10.13;;;9.07;;
28270;SDS011;15527;0.000;0.000;2022-11-20T03:45:52;9.95;;;8.63;;
28270;SDS011;15527;0.000;0.000;2022-11-20T03:46:50;10.70;;;9.27;;
28270;SDS011;15527;0.000;0.000;2022-11-20T03:47:49;12.65;;;9.70;;
28270;SDS011;15527;0.000;0.000;2022-11-20T03:48:48;10.25;;;9.25;;
28270;SDS011;15527;0.000;0.000;2022-11-20T03:49:49;10.23;;;9.13;;
28270;SDS011;15527;0.000;0.000;2022-11-20T03:50:47;9.93;;;8.82;;
28270;SDS011;15527;0.000;0.000;2022-11-20T03:51:46;12.38;;;9.30;;
28270;SDS011;15527;0.000;0.000;2022-11-20T03:52:44;9.65;;;8.27;;
28270;SDS011;15527;0.000;0.000;2022-11-20T03:53:44;10.18;;;9.15;;
28270;SDS011;15527;0.000;0.000;2022-11-20T03:54:43;9.80;;;8.35;;
28270;SDS011;15527;0.000;0.000;2022-11-20T03:55:42;9.63;;;8.43;;
28270;SDS011;15527;0.000;0.000;2022-11-20T03:56:40;10.45;;;8.65;;
28270;SDS011;15527;0.000;0.000;2022-11-20T03:57:41;11.50;;;8.60;;
28270;SDS011;15527;0.000;0.000;2022-11-20T03:58:42;8.95;;;8.10;;
28270;SDS011;15527;0.000;0.000;2022-11-20T03:59:44;9.82;;;8.82;;
28270;SDS011;15527;0.000;0.000;2022-11-20T04:00:42;9.40;;;8.40;;
28270;SDS011;15527;0.000;0.000;2022-11-20T04:01:41;9.45;;;8.55;;
28270;SDS011;15527;0.000;0.000;2022-11-20T04:02:39;8.80;;;7.70;;
28270;SDS011;15527;0.000;0.000;2022-11-20T04:03:38;8.93;;;8.02;;
28270;SDS011;15527;0.000;0.000;2022-11-20T04:04:38;8.88;;;7.97;;
28270;SDS011;15527;0.000;0.000;2022-11-20T04:05:39;8.60;;;7.72;;
28270;SDS011;15527;0.000;0.000;2022-11-20T04:06:38;9.15;;;8.07;;
28270;SDS011;15527;0.000;0.000;2022-11-20T04:07:36;8.57;;;7.57;;
28270;SDS011;15527;0.000;0.000;2022-11-20T04:08:35;9.20;;;8.00;;
28270;SDS011;15527;0.000;0.000;2022-11-20T04:09:34;8.70;;;7.90;;
28270;SDS011;15527;0.000;0.000;2022-11-20T04:10:35;8.95;;;8.05;;
28270;SDS011;15527;0.000;0.000;2022-11-20T04:11:34;8.13;;;7.43;;
28270;SDS011;15527;0.000;0.000;2022-11-20T04:12:35;8.50;;;7.63;;
28270;SDS011;15527;0.000;0.000;2022-11-20T04:13:36;8.10;;;7.30;;
28270;SDS011;15527;0.000;0.000;2022-11-20T04:14:34;8.93;;;7.68;;
28270;SDS011;15527;0.000;0.000;2022-11-20T04:15:34;7.90;;;7.10;;
28270;SDS011;15527;0.000;0.000;2022-11-20T04:16:34;8.18;;;7.38;;
28270;SDS011;15527;0.000;0.000;2022-11-20T04:17:36;10.20;;;8.05;;
28270;SDS011;15527;0.000;0.000;2022-11-20T04:18:34;7.72;;;6.93;;
28270;SDS011;15527;0.000;0.000;2022-11-20T04:19:36;8.13;;;7.32;;
28270;SDS011;15527;0.000;0.000;2022-11-20T04:20:34;7.82;;;7.13;;
28270;SDS011;15527;0.000;0.000;2022-11-20T04:21:33;7.72;;;6.72;;
28270;SDS011;15527;0.000;0.000;2022-11-20T04:22:35;7.40;;;6.65;;
28270;SDS011;15527;0.000;0.000;2022-11-20T04:23:36;8.30;;;6.88;;
28270;SDS011;15527;0.000;0.000;2022-11-20T04:24:34;7.13;;;6.47;;
28270;SDS011;15527;0.000;0.000;2022-11-20T04:25:33;8.00;;;6.90;;
28270;SDS011;15527;0.000;0.000;2022-11-20T04:26:32;7.63;;;6.88;;
28270;SDS011;15527;0.000;0.000;2022-11-20T04:27:33;8.93;;;6.88;;
28270;SDS011;15527;0.000;0.000;2022-11-20T04:28:31;7.72;;;7.03;;
28270;SDS011;15527;0.000;0.000;2022-11-20T04:29:32;7.35;;;6.65;;
28270;SDS011;15527;0.000;0.000;2022-11-20T04:30:33;7.53;;;6.82;;
28270;SDS011;15527;0.000;0.000;2022-11-20T04:31:34;7.40;;;6.70;;
28270;SDS011;15527;0.000;0.000;2022-11-20T04:32:35;6.43;;;5.82;;
28270;SDS011;15527;0.000;0.000;2022-11-20T04:33:34;7.03;;;6.43;;
28270;SDS011;15527;0.000;0.000;2022-11-20T04:34:38;6.72;;;6.13;;
28270;SDS011;15527;0.000;0.000;2022-11-20T04:35:39;7.22;;;6.50;;
28270;SDS011;15527;0.000;0.000;2022-11-20T04:36:37;6.75;;;6.00;;
28270;SDS011;15527;0.000;0.000;2022-11-20T04:37:36;6.72;;;6.10;;
28270;SDS011;15527;0.000;0.000;2022-11-20T04:38:38;6.93;;;6.22;;
28270;SDS011;15527;0.000;0.000;2022-11-20T04:39:39;6.72;;;6.13;;
28270;SDS011;15527;0.000;0.000;2022-11-20T04:40:38;7.38;;;6.65;;
28270;SDS011;15527;0.000;0.000;2022-11-20T04:41:37;7.30;;;6.60;;
28270;SDS011;15527;0.000;0.000;2022-11-20T04:42:36;6.90;;;6.20;;
28270;SDS011;15527;0.000;0.000;2022-11-20T04:43:37;6.68;;;6.07;;
28270;SDS011;15527;0.000;0.000;2022-11-20T04:44:36;6.70;;;6.10;;
28270;SDS011;15527;0.000;0.000;2022-11-20T04:45:39;6.45;;;5.85;;
28270;SDS011;15527;0.000;0.000;2022-11-20T04:46:38;6.70;;;6.10;;
28270;SDS011;15527;0.000;0.000;2022-11-20T04:47:38;6.80;;;6.20;;
28270;SDS011;15527;0.000;0.000;2022-11-20T04:48:37;6.80;;;6.10;;
28270;SDS011;15527;0.000;0.000;2022-11-20T04:49:35;6.53;;;5.93;;
28270;SDS011;15527;0.000;0.000;2022-11-20T04:50:39;6.88;;;6.18;;
28270;SDS011;15527;0.000;0.000;2022-11-20T04:51:38;6.32;;;5.72;;
28270;SDS011;15527;0.000;0.000;2022-11-20T04:52:39;6.75;;;6.15;;
28270;SDS011;15527;0.000;0.000;2022-11-20T04:53:39;6.93;;;6.22;;
28270;SDS011;15527;0.000;0.000;2022-11-20T04:54:39;7.35;;;6.22;;
28270;SDS011;15527;0.000;0.000;2022-11-20T04:55:38;6.20;;;5.60;;
28270;SDS011;15527;0.000;0.000;2022-11-20T04:56:38;6.10;;;5.60;;
28270;SDS011;15527;0.000;0.000;2022-11-20T04:57:39;6.25;;;5.65;;
28270;SDS011;15527;0.000;0.000;2022-11-20T04:58:41;5.80;;;5.30;;
28270;SDS011;15527;0.000;0.000;2022-11-20T04:59:39;6.53;;;5.80;;
28270;SDS011;15527;0.000;0.000;2022-11-20T05:00:38;6.18;;;5.57;;
28270;SDS011;15527;0.000;0.000;2022-11-20T05:01:41;6.25;;;5.65;;
28270;SDS011;15527;0.000;0.000;2022-11-20T05:02:42;6.30;;;5.70;;
28270;SDS011;15527;0.000;0.000;2022-11-20T05:03:44;6.00;;;5.40;;
28270;SDS011;15527;0.000;0.000;2022-11-20T05:04:45;6.22;;;5.63;;
28270;SDS011;15527;0.000;0.000;2022-11-20T05:05:44;7.68;;;5.97;;
28270;SDS011;15527;0.000;0.000;2022-11-20T05:06:42;5.95;;;5.32;;
28270;SDS011;15527;0.000;0.000;2022-11-20T05:07:43;5.72;;;5.22;;
28270;SDS011;15527;0.000;0.000;2022-11-20T05:08:42;6.45;;;5.55;;
28270;SDS011;15527;0.000;0.000;2022-11-20T05:09:43;6.25;;;5.75;;
28270;SDS011;15527;0.000;0.000;2022-11-20T05:10:42;6.32;;;5.50;;
28270;SDS011;15527;0.000;0.000;2022-11-20T05:11:43;6.90;;;5.47;;
28270;SDS011;15527;0.000;0.000;2022-11-20T05:12:42;5.38;;;4.95;;
28270;SDS011;15527;0.000;0.000;2022-11-20T05:13:41;5.97;;;5.38;;
28270;SDS011;15527;0.000;0.000;2022-11-20T05:14:40;5.40;;;4.95;;
28270;SDS011;15527;0.000;0.000;2022-11-20T05:15:43;5.63;;;5.10;;
28270;SDS011;15527;0.000;0.000;2022-11-20T05:16:42;6.10;;;5.50;;
28270;SDS011;15527;0.000;0.000;2022-11-20T05:17:40;5.72;;;5.13;;
28270;SDS011;15527;0.000;0.000;2022-11-20T05:18:44;4.85;;;4.45;;
28270;SDS011;15527;0.000;0.000;2022-11-20T05:19:43;5.32;;;4.82;;
28270;SDS011;15527;0.000;0.000;2022-11-20T05:20:41;5.80;;;4.88;;
28270;SDS011;15527;0.000;0.000;2022-11-20T05:21:40;6.70;;;4.93;;
28270;SDS011;15527;0.000;0.000;2022-11-20T05:22:41;5.25;;;4.75;;
28270;SDS011;15527;0.000;0.000;2022-11-20T05:23:41;5.80;;;5.20;;
28270;SDS011;15527;0.000;0.000;2022-11-20T05:24:42;5.53;;;5.03;;
28270;SDS011;15527;0.000;0.000;2022-11-20T05:25:43;5.40;;;4.90;;
28270;SDS011;15527;0.000;0.000;2022-11-20T05:26:44;5.10;;;4.70;;
28270;SDS011;15527;0.000;0.000;2022-11-20T05:27:43;4.93;;;4.45;;
28270;SDS011;15527;0.000;0.000;2022-11-20T05:28:44;6.32;;;5.03;;
28270;SDS011;15527;0.000;0.000;2022-11-20T05:29:43;5.47;;;5.03;;
28270;SDS011;15527;0.000;0.000;2022-11-20T05:30:44;5.70;;;5.10;;
28270;SDS011;15527;0.000;0.000;2022-11-20T05:31:42;5.05;;;4.65;;
28270;SDS011;15527;0.000;0.000;2022-11-20T05:32:41;5.38;;;4.88;;
28270;SDS011;15527;0.000;0.000;2022-11-20T05:33:40;5.75;;;5.15;;
28270;SDS011;15527;0.000;0.000;2022-11-20T05:34:39;5.28;;;4.78;;
28270;SDS011;15527;0.000;0.000;2022-11-20T05:35:38;5.30;;;4.80;;
28270;SDS011;15527;0.000;0.000;2022-11-20T05:36:36;4.95;;;4.40;;
28270;SDS011;15527;0.000;0.000;2022-11-20T05:37:37;5.03;;;4.53;;
28270;SDS011;15527;0.000;0.000;2022-11-20T05:38:36;5.15;;;4.65;;
28270;SDS011;15527;0.000;0.000;2022-11-20T05:39:35;5.43;;;4.93;;
28270;SDS011;15527;0.000;0.000;2022-11-20T05:40:33;4.50;;;4.20;;
28270;SDS011;15527;0.000;0.000;2022-11-20T05:41:32;5.00;;;4.50;;
28270;SDS011;15527;0.000;0.000;2022-11-20T05:42:33;5.25;;;4.75;;
28270;SDS011;15527;0.000;0.000;2022-11-20T05:43:33;4.72;;;4.32;;
28270;SDS011;15527;0.000;0.000;2022-11-20T05:44:33;5.35;;;4.85;;
28270;SDS011;15527;0.000;0.000;2022-11-20T05:45:31;4.90;;;4.40;;
28270;SDS011;15527;0.000;0.000;2022-11-20T05:46:33;5.32;;;4.82;;
28270;SDS011;15527;0.000;0.000;2022-11-20T05:47:32;4.80;;;4.40;;
28270;SDS011;15527;0.000;0.000;2022-11-20T05:48:32;5.22;;;4.75;;
28270;SDS011;15527;0.000;0.000;2022-11-20T05:49:31;5.15;;;4.75;;
28270;SDS011;15527;0.000;0.000;2022-11-20T05:50:30;5.03;;;4.53;;
28270;SDS011;15527;0.000;0.000;2022-11-20T05:51:28;5.40;;;4.75;;
28270;SDS011;15527;0.000;0.000;2022-11-20T05:52:29;4.30;;;3.90;;
28270;SDS011;15527;0.000;0.000;2022-11-20T05:53:28;4.75;;;4.35;;
28270;SDS011;15527;0.000;0.000;2022-11-20T05:54:27;4.78;;;4.38;;
28270;SDS011;15527;0.000;0.000;2022-11-20T05:55:26;5.00;;;4.47;;
28270;SDS011;15527;0.000;0.000;2022-11-20T05:56:27;4.95;;;4.53;;
28270;SDS011;15527;0.000;0.000;2022-11-20T05:57:26;5.22;;;4.70;;
28270;SDS011;15527;0.000;0.000;2022-11-20T05:58:24;5.18;;;4.68;;
28270;SDS011;15527;0.000;0.000;2022-11-20T05:59:23;5.00;;;4.50;;
28270;SDS011;15527;0.000;0.000;2022-11-20T06:00:24;4.70;;;4.30;;
28270;SDS011;15527;0.000;0.000;2022-11-20T06:01:25;4.82;;;4.43;;
28270;SDS011;15527;0.000;0.000;2022-11-20T06:02:26;5.50;;;4.82;;
28270;SDS011;15527;0.000;0.000;2022-11-20T06:03:27;5.20;;;4.70;;
28270;SDS011;15527;0.000;0.000;2022-11-20T06:04:26;4.70;;;4.30;;
28270;SDS011;15527;0.000;0.000;2022-11-20T06:05:25;4.63;;;4.22;;
28270;SDS011;15527;0.000;0.000;2022-11-20T06:06:23;5.00;;;4.40;;
28270;SDS011;15527;0.000;0.000;2022-11-20T06:07:23;4.63;;;4.22;;
28270;SDS011;15527;0.000;0.000;2022-11-20T06:08:27;4.95;;;4.45;;
28270;SDS011;15527;0.000;0.000;2022-11-20T06:09:25;4.93;;;4.50;;
28270;SDS011;15527;0.000;0.000;2022-11-20T06:10:26;4.70;;;4.25;;
28270;SDS011;15527;0.000;0.000;2022-11-20T06:11:25;4.65;;;4.25;;